createdAt,value
2016-06-16T00:00:53.553Z,0
2016-06-16T00:01:53.463Z,0
2016-06-16T00:02:53.607Z,0
2016-06-16T00:03:53.688Z,0
2016-06-16T00:04:53.737Z,0
2016-06-16T00:05:53.771Z,0
2016-06-16T00:06:53.681Z,0
2016-06-16T00:07:53.840Z,0
2016-06-16T00:08:53.906Z,0
2016-06-16T00:09:53.987Z,0
2016-06-16T00:10:53.990Z,0
2016-06-16T00:11:53.884Z,0
2016-06-16T00:12:54.121Z,0
2016-06-16T00:13:54.125Z,0
2016-06-16T00:14:54.158Z,0
2016-06-16T00:15:54.255Z,0
2016-06-16T00:16:54.290Z,0
2016-06-16T00:17:54.293Z,0
2016-06-16T00:18:54.405Z,0
2016-06-16T00:19:54.409Z,0
2016-06-16T00:20:54.287Z,0
2016-06-16T00:21:54.524Z,0
2016-06-16T00:22:54.574Z,0
2016-06-16T00:23:54.592Z,0
2016-06-16T00:24:54.658Z,0
2016-06-16T00:25:55.739Z,0
2016-06-16T00:26:54.726Z,0
2016-06-16T00:27:54.776Z,0
2016-06-16T00:28:54.842Z,0
2016-06-16T00:29:54.860Z,0
2016-06-16T00:30:54.958Z,0
2016-06-16T00:31:54.633Z,0
2016-06-16T00:32:54.855Z,0
2016-06-16T00:33:54.935Z,0
2016-06-16T00:34:55.080Z,0
2016-06-16T00:35:55.129Z,0
2016-06-16T00:36:55.211Z,0
2016-06-16T00:37:55.073Z,0
2016-06-16T00:38:55.295Z,0
2016-06-16T00:39:55.188Z,0
2016-06-16T00:40:55.394Z,0
2016-06-16T00:41:55.398Z,0
2016-06-16T00:42:55.479Z,0
2016-06-16T00:43:55.497Z,0
2016-06-16T00:44:55.595Z,0
2016-06-16T00:45:55.582Z,0
2016-06-16T00:46:55.631Z,0
2016-06-16T00:47:55.713Z,0
2016-06-16T00:48:55.591Z,0
2016-06-16T00:49:55.766Z,0
2016-06-16T00:50:55.863Z,0
2016-06-16T00:51:55.897Z,0
2016-06-16T00:52:55.900Z,0
2016-06-16T00:53:55.981Z,0
2016-06-16T00:54:56.031Z,0
2016-06-16T00:55:55.926Z,0
2016-06-16T00:56:56.100Z,0
2016-06-16T00:57:56.119Z,0
2016-06-16T00:58:56.075Z,0
2016-06-16T00:59:56.235Z,0
2016-06-16T01:00:56.268Z,0
2016-06-16T01:01:56.209Z,0
2016-06-16T01:02:56.400Z,0
2016-06-16T01:03:56.387Z,0
2016-06-16T01:04:56.484Z,0
2016-06-16T01:05:56.550Z,0
2016-06-16T01:06:56.537Z,0
2016-06-16T01:07:56.602Z,0
2016-06-16T01:08:56.653Z,0
2016-06-16T01:09:56.530Z,0
2016-06-16T01:10:56.847Z,0
2016-06-16T01:11:56.740Z,0
2016-06-16T01:12:56.384Z,0
2016-06-16T01:13:56.902Z,0
2016-06-16T01:14:56.906Z,0
2016-06-16T01:15:56.987Z,0
2016-06-16T01:16:56.990Z,0
2016-06-16T01:17:57.071Z,0
2016-06-16T01:18:57.121Z,0
2016-06-16T01:19:57.124Z,0
2016-06-16T01:20:57.190Z,0
2016-06-16T01:21:57.239Z,0
2016-06-16T01:22:57.320Z,0
2016-06-16T01:23:57.339Z,0
2016-06-16T01:24:57.358Z,0
2016-06-16T01:25:57.471Z,0
2016-06-16T01:26:57.505Z,0
2016-06-16T01:27:57.493Z,0
2016-06-16T01:28:57.573Z,0
2016-06-16T01:29:57.639Z,0
2016-06-16T01:30:57.627Z,0
2016-06-16T01:31:57.692Z,0
2016-06-16T01:32:57.773Z,0
2016-06-16T01:33:57.776Z,0
2016-06-16T01:34:57.842Z,0
2016-06-16T01:35:57.860Z,0
2016-06-16T01:36:57.941Z,0
2016-06-16T01:37:57.991Z,0
2016-06-16T01:38:57.995Z,0
2016-06-16T01:39:58.075Z,0
2016-06-16T01:40:58.953Z,0
2016-06-16T01:41:58.129Z,0
2016-06-16T01:42:58.179Z,0
2016-06-16T01:43:58.276Z,0
2016-06-16T01:44:58.279Z,0
2016-06-16T01:45:58.313Z,0
2016-06-16T01:46:58.394Z,0
2016-06-16T01:47:58.413Z,0
2016-06-16T01:48:58.494Z,0
2016-06-16T01:49:58.342Z,0
2016-06-16T01:50:58.547Z,0
2016-06-16T01:51:58.628Z,0
2016-06-16T01:52:58.663Z,0
2016-06-16T01:53:58.666Z,0
2016-06-16T01:54:58.762Z,0
2016-06-16T01:55:58.734Z,0
2016-06-16T01:56:58.800Z,0
2016-06-16T01:57:58.881Z,0
2016-06-16T01:58:58.931Z,0
2016-06-16T01:59:58.934Z,0
2016-06-16T02:00:59.031Z,0
2016-06-16T02:01:59.097Z,0
2016-06-16T02:02:59.069Z,0
2016-06-16T02:03:59.149Z,0
2016-06-16T02:04:59.216Z,0
2016-06-16T02:05:59.218Z,0
2016-06-16T02:06:59.269Z,0
2016-06-16T02:07:59.380Z,0
2016-06-16T02:08:59.353Z,0
2016-06-16T02:09:59.387Z,0
2016-06-16T02:10:59.593Z,0
2016-06-16T02:11:59.346Z,0
2016-06-16T02:12:59.568Z,0
2016-06-16T02:13:59.587Z,0
2016-06-16T02:14:59.621Z,0
2016-06-16T02:15:59.718Z,0
2016-06-16T02:16:59.737Z,0
2016-06-16T02:17:59.755Z,0
2016-06-16T02:18:59.836Z,0
2016-06-16T02:19:59.887Z,0
2016-06-16T02:20:59.718Z,0
2016-06-16T02:21:59.970Z,0
2016-06-16T02:22:59.865Z,0
2016-06-16T02:24:00.024Z,0
2016-06-16T02:25:00.089Z,0
2016-06-16T02:26:00.249Z,0
2016-06-16T02:27:00.220Z,0
2016-06-16T02:28:00.083Z,0
2016-06-16T02:29:00.243Z,0
2016-06-16T02:30:00.323Z,0
2016-06-16T02:31:00.373Z,0
2016-06-16T02:32:00.376Z,0
2016-06-16T02:33:00.443Z,0
2016-06-16T02:34:00.538Z,0
2016-06-16T02:35:00.527Z,0
2016-06-16T02:36:00.577Z,0
2016-06-16T02:37:00.658Z,0
2016-06-16T02:38:00.661Z,0
2016-06-16T02:39:00.726Z,0
2016-06-16T02:40:00.589Z,0
2016-06-16T02:41:01.373Z,0
2016-06-16T02:42:00.876Z,0
2016-06-16T02:43:00.879Z,0
2016-06-16T02:44:00.804Z,0
2016-06-16T02:45:01.026Z,0
2016-06-16T02:46:01.014Z,0
2016-06-16T02:47:00.906Z,0
2016-06-16T02:48:01.159Z,0
2016-06-16T02:49:01.038Z,0
2016-06-16T02:50:01.245Z,0
2016-06-16T02:51:01.262Z,0
2016-06-16T02:52:01.344Z,0
2016-06-16T02:53:01.347Z,0
2016-06-16T02:54:01.413Z,0
2016-06-16T02:55:01.494Z,0
2016-06-16T02:56:01.482Z,0
2016-06-16T02:57:01.547Z,0
2016-06-16T02:58:01.612Z,0
2016-06-16T02:59:01.616Z,0
2016-06-16T03:00:01.713Z,0
2016-06-16T03:01:01.763Z,0
2016-06-16T03:02:01.782Z,0
2016-06-16T03:03:01.785Z,0
2016-06-16T03:04:01.881Z,0
2016-06-16T03:05:01.931Z,5
2016-06-16T03:06:01.981Z,5
2016-06-16T03:07:01.984Z,5
2016-06-16T03:08:01.894Z,5
2016-06-16T03:09:02.099Z,5
2016-06-16T03:10:02.149Z,5
2016-06-16T03:11:02.168Z,5
2016-06-16T03:12:02.250Z,5
2016-06-16T03:13:02.253Z,5
2016-06-16T03:14:02.286Z,10
2016-06-16T03:15:02.383Z,10
2016-06-16T03:16:02.403Z,10
2016-06-16T03:17:02.453Z,10
2016-06-16T03:18:02.471Z,10
2016-06-16T03:19:02.521Z,10
2016-06-16T03:20:02.602Z,10
2016-06-16T03:21:02.621Z,10
2016-06-16T03:22:02.639Z,10
2016-06-16T03:23:02.596Z,10
2016-06-16T03:24:02.770Z,10
2016-06-16T03:25:02.790Z,10
2016-06-16T03:26:03.339Z,10
2016-06-16T03:27:03.580Z,10
2016-06-16T03:28:02.768Z,10
2016-06-16T03:29:03.005Z,10
2016-06-16T03:30:03.007Z,10
2016-06-16T03:31:03.089Z,10
2016-06-16T03:32:03.124Z,10
2016-06-16T03:33:03.142Z,10
2016-06-16T03:34:03.208Z,10
2016-06-16T03:35:03.273Z,10
2016-06-16T03:36:03.261Z,10
2016-06-16T03:37:03.327Z,15
2016-06-16T03:38:03.423Z,15
2016-06-16T03:39:03.426Z,15
2016-06-16T03:40:03.444Z,15
2016-06-16T03:41:03.541Z,15
2016-06-16T03:42:03.623Z,15
2016-06-16T03:43:03.594Z,15
2016-06-16T03:44:03.675Z,20
2016-06-16T03:45:03.679Z,20
2016-06-16T03:46:03.712Z,20
2016-06-16T03:47:03.810Z,20
2016-06-16T03:48:03.844Z,20
2016-06-16T03:49:03.847Z,20
2016-06-16T03:50:03.944Z,20
2016-06-16T03:51:03.683Z,25
2016-06-16T03:52:03.981Z,25
2016-06-16T03:53:04.063Z,25
2016-06-16T03:54:04.128Z,25
2016-06-16T03:55:04.132Z,25
2016-06-16T03:56:04.212Z,30
2016-06-16T03:57:03.919Z,30
2016-06-16T03:58:04.297Z,30
2016-06-16T03:59:04.347Z,30
2016-06-16T04:00:04.397Z,30
2016-06-16T04:01:04.416Z,35
2016-06-16T04:02:04.497Z,30
2016-06-16T04:03:04.328Z,30
2016-06-16T04:04:04.535Z,30
2016-06-16T04:05:04.631Z,35
2016-06-16T04:06:04.649Z,35
2016-06-16T04:07:04.684Z,35
2016-06-16T04:08:04.750Z,35
2016-06-16T04:09:04.627Z,35
2016-06-16T04:10:04.849Z,35
2016-06-16T04:11:04.853Z,35
2016-06-16T04:12:05.000Z,40
2016-06-16T04:13:05.002Z,40
2016-06-16T04:14:04.986Z,45
2016-06-16T04:15:05.037Z,45
2016-06-16T04:16:05.102Z,50
2016-06-16T04:17:05.156Z,50
2016-06-16T04:18:05.214Z,55
2016-06-16T04:19:05.409Z,50
2016-06-16T04:20:05.467Z,55
2016-06-16T04:21:05.342Z,60
2016-06-16T04:22:05.405Z,60
2016-06-16T04:23:05.643Z,60
2016-06-16T04:24:05.739Z,60
2016-06-16T04:25:05.756Z,60
2016-06-16T04:26:05.800Z,65
2016-06-16T04:27:06.199Z,65
2016-06-16T04:28:05.925Z,65
2016-06-16T04:29:05.949Z,70
2016-06-16T04:30:05.902Z,70
2016-06-16T04:31:05.926Z,70
2016-06-16T04:32:06.078Z,75
2016-06-16T04:33:06.016Z,70
2016-06-16T04:34:06.198Z,75
2016-06-16T04:35:06.295Z,80
2016-06-16T04:36:06.144Z,85
2016-06-16T04:37:06.320Z,90
2016-06-16T04:38:06.418Z,100
2016-06-16T04:39:06.469Z,105
2016-06-16T04:40:06.457Z,110
2016-06-16T04:41:06.554Z,115
2016-06-16T04:42:07.152Z,110
2016-06-16T04:43:06.608Z,115
2016-06-16T04:44:06.674Z,120
2016-06-16T04:45:06.755Z,125
2016-06-16T04:46:06.586Z,125
2016-06-16T04:47:06.839Z,125
2016-06-16T04:48:06.859Z,130
2016-06-16T04:49:06.892Z,135
2016-06-16T04:50:06.974Z,140
2016-06-16T04:51:06.977Z,135
2016-06-16T04:52:07.027Z,135
2016-06-16T04:53:07.108Z,140
2016-06-16T04:54:07.143Z,145
2016-06-16T04:55:07.161Z,145
2016-06-16T04:56:07.102Z,145
2016-06-16T04:57:07.543Z,150
2016-06-16T04:58:07.280Z,155
2016-06-16T04:59:07.376Z,160
2016-06-16T05:00:07.426Z,160
2016-06-16T05:01:07.461Z,165
2016-06-16T05:02:07.479Z,165
2016-06-16T05:03:07.514Z,160
2016-06-16T05:04:07.611Z,160
2016-06-16T05:05:07.644Z,160
2016-06-16T05:06:07.648Z,160
2016-06-16T05:07:07.745Z,160
2016-06-16T05:08:07.764Z,160
2016-06-16T05:09:07.782Z,160
2016-06-16T05:10:07.707Z,155
2016-06-16T05:11:07.929Z,150
2016-06-16T05:12:09.433Z,145
2016-06-16T05:13:07.983Z,140
2016-06-16T05:14:08.017Z,140
2016-06-16T05:15:08.130Z,135
2016-06-16T05:16:08.116Z,140
2016-06-16T05:17:08.151Z,145
2016-06-16T05:18:08.092Z,155
2016-06-16T05:19:08.267Z,165
2016-06-16T05:20:08.285Z,170
2016-06-16T05:21:08.366Z,170
2016-06-16T05:22:08.416Z,175
2016-06-16T05:23:08.419Z,175
2016-06-16T05:24:08.500Z,180
2016-06-16T05:25:08.550Z,180
2016-06-16T05:26:08.554Z,180
2016-06-16T05:27:08.823Z,180
2016-06-16T05:28:08.685Z,185
2016-06-16T05:29:08.734Z,185
2016-06-16T05:30:08.737Z,185
2016-06-16T05:31:08.835Z,185
2016-06-16T05:32:08.869Z,180
2016-06-16T05:33:09.044Z,180
2016-06-16T05:34:09.078Z,190
2016-06-16T05:35:09.050Z,190
2016-06-16T05:36:09.006Z,190
2016-06-16T05:37:09.087Z,195
2016-06-16T05:38:09.121Z,195
2016-06-16T05:39:09.203Z,195
2016-06-16T05:40:09.237Z,200
2016-06-16T05:41:09.255Z,200
2016-06-16T05:42:09.353Z,200
2016-06-16T05:43:09.387Z,200
2016-06-16T05:44:09.390Z,195
2016-06-16T05:45:09.472Z,195
2016-06-16T05:46:09.521Z,200
2016-06-16T05:47:09.508Z,195
2016-06-16T05:48:09.590Z,200
2016-06-16T05:49:09.671Z,200
2016-06-16T05:50:09.658Z,200
2016-06-16T05:51:09.599Z,200
2016-06-16T05:52:09.602Z,215
2016-06-16T05:53:09.683Z,215
2016-06-16T05:54:09.890Z,220
2016-06-16T05:55:09.878Z,225
2016-06-16T05:56:09.959Z,225
2016-06-16T05:57:10.071Z,230
2016-06-16T05:58:10.027Z,230
2016-06-16T05:59:10.076Z,235
2016-06-16T06:00:10.063Z,230
2016-06-16T06:01:10.177Z,230
2016-06-16T06:02:10.211Z,230
2016-06-16T06:03:10.308Z,225
2016-06-16T06:04:10.326Z,220
2016-06-16T06:05:10.408Z,215
2016-06-16T06:06:10.411Z,210
2016-06-16T06:07:10.461Z,205
2016-06-16T06:08:10.543Z,205
2016-06-16T06:09:10.592Z,210
2016-06-16T06:10:10.595Z,205
2016-06-16T06:11:10.661Z,210
2016-06-16T06:12:10.819Z,215
2016-06-16T06:13:10.728Z,225
2016-06-16T06:14:10.811Z,235
2016-06-16T06:15:10.860Z,235
2016-06-16T06:16:10.879Z,235
2016-06-16T06:17:10.913Z,240
2016-06-16T06:18:10.948Z,240
2016-06-16T06:19:11.077Z,245
2016-06-16T06:20:11.079Z,245
2016-06-16T06:21:11.114Z,240
2016-06-16T06:22:11.194Z,240
2016-06-16T06:23:11.229Z,235
2016-06-16T06:24:11.231Z,235
2016-06-16T06:25:11.313Z,235
2016-06-16T06:26:11.410Z,235
2016-06-16T06:27:11.226Z,225
2016-06-16T06:28:11.463Z,230
2016-06-16T06:29:11.482Z,240
2016-06-16T06:30:11.563Z,240
2016-06-16T06:31:11.613Z,240
2016-06-16T06:32:11.616Z,240
2016-06-16T06:33:11.681Z,245
2016-06-16T06:34:11.748Z,245
2016-06-16T06:35:11.751Z,245
2016-06-16T06:36:11.816Z,245
2016-06-16T06:37:11.740Z,245
2016-06-16T06:38:11.899Z,250
2016-06-16T06:39:11.794Z,250
2016-06-16T06:40:11.875Z,250
2016-06-16T06:41:12.065Z,250
2016-06-16T06:42:13.006Z,250
2016-06-16T06:43:12.118Z,250
2016-06-16T06:44:12.012Z,245
2016-06-16T06:45:12.281Z,250
2016-06-16T06:46:12.284Z,250
2016-06-16T06:47:12.318Z,250
2016-06-16T06:48:12.416Z,250
2016-06-16T06:49:12.450Z,255
2016-06-16T06:50:12.140Z,255
2016-06-16T06:51:12.549Z,255
2016-06-16T06:52:12.584Z,255
2016-06-16T06:53:12.601Z,250
2016-06-16T06:54:12.684Z,250
2016-06-16T06:55:12.702Z,250
2016-06-16T06:56:12.815Z,255
2016-06-16T06:57:12.521Z,255
2016-06-16T06:58:12.836Z,250
2016-06-16T06:59:12.792Z,260
2016-06-16T07:00:13.014Z,265
2016-06-16T07:01:12.986Z,265
2016-06-16T07:02:13.068Z,270
2016-06-16T07:03:13.102Z,270
2016-06-16T07:04:13.120Z,265
2016-06-16T07:05:13.217Z,270
2016-06-16T07:06:13.267Z,270
2016-06-16T07:07:13.270Z,275
2016-06-16T07:08:13.320Z,280
2016-06-16T07:09:13.433Z,275
2016-06-16T07:10:13.420Z,275
2016-06-16T07:11:13.470Z,275
2016-06-16T07:12:13.676Z,275
2016-06-16T07:13:13.585Z,275
2016-06-16T07:14:13.604Z,275
2016-06-16T07:15:13.686Z,280
2016-06-16T07:16:13.736Z,280
2016-06-16T07:17:13.755Z,280
2016-06-16T07:18:13.835Z,280
2016-06-16T07:19:13.886Z,280
2016-06-16T07:20:13.920Z,275
2016-06-16T07:21:13.954Z,285
2016-06-16T07:22:13.988Z,275
2016-06-16T07:23:14.101Z,285
2016-06-16T07:24:14.136Z,280
2016-06-16T07:25:14.138Z,275
2016-06-16T07:26:14.203Z,275
2016-06-16T07:27:14.863Z,280
2016-06-16T07:28:14.288Z,280
2016-06-16T07:29:14.354Z,275
2016-06-16T07:30:14.419Z,270
2016-06-16T07:31:14.422Z,245
2016-06-16T07:32:40.175Z,220
2016-06-16T07:33:14.519Z,220
2016-06-16T07:34:14.616Z,230
2016-06-16T07:48:36.818Z,330
2016-06-16T07:48:46.927Z,325
2016-06-16T07:48:59.318Z,315
2016-06-16T07:49:59.664Z,340
2016-06-16T07:50:59.683Z,315
2016-06-16T07:51:59.827Z,300
2016-06-16T07:52:59.798Z,300
2016-06-16T07:53:59.848Z,310
2016-06-16T07:54:59.727Z,320
2016-06-16T07:55:59.965Z,325
2016-06-16T07:56:59.983Z,325
2016-06-16T07:57:59.907Z,320
2016-06-16T07:59:00.082Z,315
2016-06-16T08:00:00.133Z,355
2016-06-16T08:01:00.120Z,355
2016-06-16T08:02:00.233Z,315
2016-06-16T08:03:00.267Z,315
2016-06-16T08:04:00.207Z,310
2016-06-16T08:05:00.242Z,295
2016-06-16T08:06:00.260Z,285
2016-06-16T08:07:00.342Z,305
2016-06-16T08:08:00.267Z,315
2016-06-16T08:09:00.567Z,350
2016-06-16T08:10:00.664Z,340
2016-06-16T08:11:00.667Z,350
2016-06-16T08:12:00.497Z,330
2016-06-16T08:13:00.610Z,340
2016-06-16T08:14:00.801Z,335
2016-06-16T08:15:00.928Z,345
2016-06-16T08:16:00.932Z,350
2016-06-16T08:17:00.951Z,340
2016-06-16T08:18:01.047Z,335
2016-06-16T08:19:01.098Z,355
2016-06-16T08:20:00.788Z,360
2016-06-16T08:21:01.197Z,345
2016-06-16T08:22:01.263Z,335
2016-06-16T08:23:01.094Z,320
2016-06-16T08:24:01.348Z,315
2016-06-16T08:25:01.193Z,320
2016-06-16T08:26:01.446Z,330
2016-06-16T08:27:01.356Z,360
2016-06-16T08:28:01.516Z,345
2016-06-16T08:29:01.425Z,335
2016-06-16T08:30:01.350Z,335
2016-06-16T08:31:01.494Z,340
2016-06-16T08:32:01.575Z,360
2016-06-16T08:33:01.656Z,385
2016-06-16T08:34:01.815Z,405
2016-06-16T08:35:01.866Z,415
2016-06-16T08:36:01.963Z,425
2016-06-16T08:37:01.966Z,425
2016-06-16T08:38:02.061Z,420
2016-06-16T08:39:01.909Z,405
2016-06-16T08:40:02.100Z,405
2016-06-16T08:41:02.212Z,395
2016-06-16T08:42:02.215Z,385
2016-06-16T08:43:02.266Z,380
2016-06-16T08:44:02.191Z,370
2016-06-16T08:45:02.225Z,365
2016-06-16T08:46:02.400Z,370
2016-06-16T08:47:02.497Z,385
2016-06-16T08:48:25.487Z,405
2016-06-16T08:48:38.362Z,385
2016-06-16T08:49:38.240Z,365
2016-06-16T08:50:38.244Z,355
2016-06-16T08:51:38.293Z,370
2016-06-16T08:52:38.421Z,365
2016-06-16T08:53:38.269Z,335
2016-06-16T08:54:38.444Z,325
2016-06-16T08:55:38.384Z,340
2016-06-16T08:56:38.652Z,360
2016-06-16T08:57:38.593Z,370
2016-06-16T08:58:38.673Z,380
2016-06-16T08:59:38.584Z,385
2016-06-16T09:00:38.602Z,385
2016-06-16T09:01:38.652Z,395
2016-06-16T09:02:38.889Z,425
2016-06-16T09:03:38.752Z,420
2016-06-16T09:04:38.802Z,430
2016-06-16T09:05:39.040Z,435
2016-06-16T09:06:39.073Z,435
2016-06-16T09:07:39.092Z,435
2016-06-16T09:08:39.032Z,445
2016-06-16T09:09:39.224Z,440
2016-06-16T09:10:39.258Z,435
2016-06-16T09:11:39.339Z,460
2016-06-16T09:12:39.201Z,495
2016-06-16T09:13:39.439Z,520
2016-06-16T09:14:39.458Z,525
2016-06-16T09:15:39.508Z,530
2016-06-16T09:16:39.589Z,520
2016-06-16T09:17:39.623Z,500
2016-06-16T09:18:39.501Z,510
2016-06-16T09:19:39.755Z,505
2016-06-16T09:20:39.788Z,470
2016-06-16T09:21:39.792Z,460
2016-06-16T09:22:39.888Z,425
2016-06-16T09:23:39.641Z,410
2016-06-16T09:24:39.973Z,390
2016-06-16T09:25:39.882Z,375
2016-06-16T09:26:40.057Z,370
2016-06-16T09:27:39.982Z,370
2016-06-16T09:28:40.204Z,375
2016-06-16T09:29:40.207Z,375
2016-06-16T09:30:39.991Z,385
2016-06-16T09:31:40.353Z,410
2016-06-16T09:32:40.372Z,445
2016-06-16T09:33:40.439Z,485
2016-06-16T09:34:40.378Z,510
2016-06-16T09:35:40.382Z,545
2016-06-16T09:36:40.432Z,540
2016-06-16T09:37:40.341Z,545
2016-06-16T09:38:40.562Z,545
2016-06-16T09:39:40.769Z,540
2016-06-16T09:40:40.772Z,535
2016-06-16T09:41:40.838Z,540
2016-06-16T09:42:41.044Z,545
2016-06-16T09:43:40.984Z,550
2016-06-16T09:44:41.097Z,555
2016-06-16T09:45:42.131Z,565
2016-06-16T09:46:41.104Z,580
2016-06-16T09:47:41.137Z,570
2016-06-16T09:48:41.249Z,545
2016-06-16T09:49:41.144Z,540
2016-06-16T09:50:41.161Z,515
2016-06-16T09:51:41.369Z,515
2016-06-16T09:52:41.090Z,515
2016-06-16T09:53:41.500Z,540
2016-06-16T09:54:41.517Z,550
2016-06-16T09:55:41.396Z,550
2016-06-16T09:56:41.415Z,545
2016-06-16T09:57:41.683Z,525
2016-06-16T09:58:41.561Z,540
2016-06-16T09:59:41.799Z,560
2016-06-16T10:00:41.849Z,610
2016-06-16T10:01:41.867Z,625
2016-06-16T10:02:41.965Z,645
2016-06-16T10:03:42.531Z,650
2016-06-16T10:04:42.221Z,640
2016-06-16T10:05:42.193Z,630
2016-06-16T10:06:42.133Z,610
2016-06-16T10:07:42.885Z,600
2016-06-16T10:08:44.842Z,575
2016-06-16T10:09:43.017Z,565
2016-06-16T10:10:42.364Z,565
2016-06-16T10:11:42.305Z,515
2016-06-16T10:12:42.433Z,510
2016-06-16T10:13:42.373Z,525
2016-06-16T10:14:42.315Z,520
2016-06-16T10:15:42.630Z,515
2016-06-16T10:16:42.554Z,530
2016-06-16T10:17:42.402Z,550
2016-06-16T10:18:42.466Z,565
2016-06-16T10:19:42.861Z,580
2016-06-16T10:20:42.723Z,605
2016-06-16T10:21:42.929Z,595
2016-06-16T10:22:42.714Z,610
2016-06-16T10:23:43.045Z,625
2016-06-16T10:24:43.095Z,595
2016-06-16T10:25:43.191Z,610
2016-06-16T10:26:43.069Z,635
2016-06-16T10:27:43.089Z,660
2016-06-16T10:28:43.341Z,645
2016-06-16T10:29:43.204Z,620
2016-06-16T10:30:43.145Z,620
2016-06-16T10:31:43.460Z,615
2016-06-16T10:32:43.370Z,650
2016-06-16T10:33:43.607Z,655
2016-06-16T10:34:43.625Z,675
2016-06-16T10:35:43.675Z,645
2016-06-16T10:36:43.772Z,635
2016-06-16T10:37:43.806Z,640
2016-06-16T10:38:43.856Z,665
2016-06-16T10:39:43.922Z,640
2016-06-16T10:40:43.988Z,615
2016-06-16T10:41:43.990Z,610
2016-06-16T10:42:43.915Z,615
2016-06-16T10:43:44.153Z,625
2016-06-16T10:44:44.157Z,630
2016-06-16T10:45:44.206Z,630
2016-06-16T10:46:44.163Z,635
2016-06-16T10:47:44.322Z,635
2016-06-16T10:48:44.372Z,640
2016-06-16T10:49:44.312Z,635
2016-06-16T10:50:44.503Z,640
2016-06-16T10:51:44.521Z,635
2016-06-16T10:52:44.462Z,660
2016-06-16T10:53:44.512Z,650
2016-06-16T10:54:44.703Z,645
2016-06-16T10:55:44.580Z,615
2016-06-16T10:56:44.834Z,615
2016-06-16T10:57:44.915Z,615
2016-06-16T10:58:44.903Z,615
2016-06-16T10:59:44.936Z,620
2016-06-16T11:00:45.065Z,595
2016-06-16T11:01:44.927Z,580
2016-06-16T11:02:44.790Z,585
2016-06-16T11:03:45.059Z,550
2016-06-16T11:04:45.249Z,550
2016-06-16T11:07:50.727Z,615
2016-06-16T11:09:41.468Z,660
2016-06-16T11:09:54.171Z,670
2016-06-16T11:10:54.049Z,685
2016-06-16T11:11:54.286Z,705
2016-06-16T11:13:44.840Z,730
2016-06-16T11:13:57.496Z,725
2016-06-16T11:14:57.452Z,750
2016-06-16T11:15:57.486Z,785
2016-06-16T11:16:57.630Z,765
2016-06-16T11:17:57.711Z,720
2016-06-16T11:18:57.808Z,745
2016-06-16T11:19:57.842Z,800
2016-06-16T11:20:57.924Z,795
2016-06-16T11:21:57.927Z,765
2016-06-16T11:22:57.993Z,795
2016-06-16T11:23:58.074Z,795
2016-06-16T11:24:58.061Z,785
2016-06-16T11:25:57.970Z,760
2016-06-16T11:26:58.238Z,730
2016-06-16T11:27:58.086Z,665
2016-06-16T11:28:58.276Z,590
2016-06-16T11:29:58.389Z,570
2016-06-16T11:30:58.423Z,535
2016-06-16T11:31:58.285Z,520
2016-06-16T11:32:58.226Z,535
2016-06-16T11:33:58.558Z,545
2016-06-16T11:34:58.497Z,580
2016-06-16T11:35:58.673Z,640
2016-06-16T11:36:58.567Z,710
2016-06-16T11:37:58.663Z,760
2016-06-16T11:38:58.853Z,800
2016-06-16T11:39:58.873Z,805
2016-06-16T11:40:58.969Z,805
2016-06-16T11:41:58.879Z,810
2016-06-16T11:42:59.038Z,805
2016-06-16T11:43:59.119Z,815
2016-06-16T11:44:59.028Z,800
2016-06-16T11:45:59.062Z,845
2016-06-16T11:46:58.973Z,845
2016-06-16T11:47:59.162Z,870
2016-06-16T11:48:59.415Z,860
2016-06-16T11:49:59.449Z,865
2016-06-16T11:50:59.468Z,840
2016-06-16T11:51:59.566Z,855
2016-06-16T11:52:59.631Z,820
2016-06-16T11:53:59.634Z,775
2016-06-16T11:54:59.590Z,750
2016-06-16T11:55:59.640Z,845
2016-06-16T11:56:59.815Z,890
2016-06-16T11:57:59.584Z,905
2016-06-16T11:58:59.760Z,875
2016-06-16T11:59:59.716Z,860
2016-06-16T12:00:59.921Z,940
2016-06-16T12:01:59.909Z,955
2016-06-16T12:03:00.194Z,945
2016-06-16T12:04:00.086Z,930
2016-06-16T12:05:00.106Z,920
2016-06-16T12:06:00.015Z,865
2016-06-16T12:07:00.409Z,825
2016-06-16T12:08:00.271Z,790
2016-06-16T12:09:00.508Z,695
2016-06-16T12:10:00.449Z,600
2016-06-16T12:11:00.593Z,595
2016-06-16T12:12:00.705Z,605
2016-06-16T12:13:00.536Z,595
2016-06-16T12:14:00.617Z,600
2016-06-16T12:15:00.559Z,590
2016-06-16T12:16:00.749Z,595
2016-06-16T12:17:00.939Z,605
2016-06-16T12:18:01.052Z,595
2016-06-16T12:19:01.102Z,595
2016-06-16T12:20:01.105Z,605
2016-06-16T12:21:01.233Z,630
2016-06-16T12:22:01.095Z,655
2016-06-16T12:23:01.270Z,665
2016-06-16T12:24:01.211Z,880
2016-06-16T12:25:01.449Z,1180
2016-06-16T12:26:01.435Z,1260
2016-06-16T12:27:01.376Z,1040
2016-06-16T12:28:01.441Z,1060
2016-06-16T12:29:01.602Z,1170
2016-06-16T12:30:01.527Z,1225
2016-06-16T12:31:01.764Z,1235
2016-06-16T12:32:01.626Z,1185
2016-06-16T12:33:01.692Z,775
2016-06-16T12:34:01.789Z,695
2016-06-16T12:35:01.963Z,650
2016-06-16T12:36:01.841Z,620
2016-06-16T12:37:01.938Z,590
2016-06-16T12:38:02.130Z,570
2016-06-16T12:39:02.070Z,570
2016-06-16T12:40:02.088Z,560
2016-06-16T12:41:02.295Z,550
2016-06-16T12:42:02.375Z,530
2016-06-16T12:43:02.253Z,525
2016-06-16T12:44:02.445Z,520
2016-06-16T12:45:02.384Z,525
2016-06-16T12:46:02.435Z,530
2016-06-16T12:47:02.641Z,530
2016-06-16T12:48:02.691Z,525
2016-06-16T12:49:02.600Z,525
2016-06-16T12:50:02.791Z,520
2016-06-16T12:51:02.856Z,510
2016-06-16T12:52:02.876Z,490
2016-06-16T12:53:02.832Z,470
2016-06-16T12:58:51.553Z,455
2016-06-16T12:59:04.084Z,460
2016-06-16T13:00:04.337Z,450
2016-06-16T13:01:04.168Z,450
2016-06-16T13:02:04.375Z,440
2016-06-16T13:03:04.332Z,435
2016-06-16T13:04:04.460Z,430
2016-06-16T13:05:04.228Z,410
2016-06-16T13:06:04.590Z,410
2016-06-16T13:07:04.531Z,415
2016-06-16T13:08:04.753Z,410
2016-06-16T13:09:04.740Z,395
2016-06-16T13:10:04.665Z,385
2016-06-16T13:11:04.747Z,380
2016-06-16T13:12:04.594Z,380
2016-06-16T13:13:04.988Z,375
2016-06-16T13:14:05.053Z,385
2016-06-16T13:15:05.056Z,400
2016-06-16T13:16:04.965Z,415
2016-06-16T13:17:05.312Z,430
2016-06-16T13:18:05.112Z,435
2016-06-16T13:19:05.334Z,440
2016-06-16T13:20:05.180Z,450
2016-06-16T13:21:05.230Z,475
2016-06-16T13:22:05.499Z,530
2016-06-16T13:23:05.361Z,625
2016-06-16T13:24:05.490Z,1020
2016-06-16T13:25:05.742Z,860
2016-06-16T13:26:05.715Z,810
2016-06-16T13:27:05.405Z,840
2016-06-16T13:28:05.862Z,735
2016-06-16T13:29:05.693Z,745
2016-06-16T13:30:05.790Z,790
2016-06-16T13:31:06.057Z,1210
2016-06-16T13:32:05.905Z,1150
2016-06-16T13:33:06.158Z,955
2016-06-16T13:34:06.020Z,1265
2016-06-16T13:35:06.055Z,1650
2016-06-16T13:36:06.339Z,1760
2016-06-16T13:37:06.342Z,1625
2016-06-16T13:38:06.376Z,1635
2016-06-16T13:39:06.301Z,1480
2016-06-16T13:40:06.321Z,1475
2016-06-16T13:41:06.308Z,1395
2016-06-16T13:42:06.592Z,1415
2016-06-16T13:43:06.642Z,1315
2016-06-16T13:44:06.645Z,1295
2016-06-16T13:45:06.773Z,815
2016-06-16T13:46:06.807Z,1005
2016-06-16T13:47:06.858Z,1160
2016-06-16T13:48:06.813Z,1255
2016-06-16T13:49:07.019Z,1405
2016-06-16T13:50:07.069Z,1500
2016-06-16T13:51:07.135Z,900
2016-06-16T13:52:07.076Z,735
2016-06-16T13:53:07.267Z,705
2016-06-16T13:58:50.826Z,715
2016-06-16T13:59:50.892Z,740
2016-06-16T14:00:50.816Z,745
2016-06-16T14:01:51.070Z,770
2016-06-16T14:02:50.839Z,855
2016-06-16T14:03:51.154Z,1175
2016-06-16T14:04:51.110Z,1375
2016-06-16T14:05:51.207Z,1400
2016-06-16T14:06:51.352Z,1005
2016-06-16T14:07:51.354Z,980
2016-06-16T14:08:51.217Z,1800
2016-06-16T14:09:51.157Z,1660
2016-06-16T14:10:51.348Z,1560
2016-06-16T14:11:51.522Z,1715
2016-06-16T14:12:51.666Z,1990
2016-06-16T14:13:51.685Z,2100
2016-06-16T14:14:51.703Z,2125
2016-06-16T14:15:51.675Z,870
2016-06-16T14:16:51.898Z,970
2016-06-16T14:17:51.901Z,1670
2016-06-16T14:18:52.014Z,1745
2016-06-16T14:19:51.924Z,690
2016-06-16T14:20:52.131Z,670
2016-06-16T14:21:52.008Z,695
2016-06-16T14:22:52.262Z,715
2016-06-16T14:23:52.233Z,755